createdAt,value
2023-12-03T00:00:24.112Z,34.38
2023-12-03T00:00:59.359Z,34.47
2023-12-03T00:01:31.815Z,34.45
2023-12-03T00:02:04.582Z,34.88
2023-12-03T00:02:37.327Z,35.07
2023-12-03T00:03:12.485Z,34.93
2023-12-03T00:03:44.922Z,34.79
2023-12-03T00:04:17.395Z,35.10
2023-12-03T00:04:50.304Z,35.38
2023-12-03T00:05:25.329Z,35.01
2023-12-03T00:05:57.753Z,35.04
2023-12-03T00:06:30.357Z,35.16
2023-12-03T00:07:06.108Z,35.13
2023-12-03T00:07:41.532Z,35.54
2023-12-03T00:08:14.569Z,35.58
2023-12-03T00:08:50.975Z,35.26
2023-12-03T00:09:24.207Z,35.41
2023-12-03T00:09:59.891Z,35.55
2023-12-03T00:10:32.604Z,35.47
2023-12-03T00:11:05.306Z,35.52
2023-12-03T00:11:37.706Z,35.76
2023-12-03T00:12:12.974Z,35.86
2023-12-03T00:12:45.551Z,35.88
2023-12-03T00:13:17.977Z,35.48
2023-12-03T00:13:50.356Z,35.49
2023-12-03T00:14:25.388Z,35.93
2023-12-03T00:14:59.596Z,35.67
2023-12-03T00:15:32.094Z,35.98
2023-12-03T00:16:07.651Z,36.02
2023-12-03T00:16:40.005Z,35.86
2023-12-03T00:17:12.405Z,35.68
2023-12-03T00:17:44.830Z,35.65
2023-12-03T00:18:19.913Z,36.05
2023-12-03T00:18:52.479Z,36.09
2023-12-03T00:19:25.885Z,35.67
2023-12-03T00:19:58.280Z,35.74
2023-12-03T00:20:33.244Z,36.17
2023-12-03T00:21:06.025Z,36.16
2023-12-03T00:21:38.574Z,36.03
2023-12-03T00:22:16.273Z,36.13
2023-12-03T00:22:48.843Z,35.81
2023-12-03T00:23:21.275Z,35.76
2023-12-03T00:23:56.436Z,36.03
2023-12-03T00:24:28.879Z,35.96
2023-12-03T00:25:01.405Z,36.23
2023-12-03T00:25:33.814Z,35.86
2023-12-03T00:26:09.286Z,36.12
2023-12-03T00:26:41.693Z,36.17
2023-12-03T00:27:14.141Z,35.97
2023-12-03T00:27:46.642Z,36.28
2023-12-03T00:28:21.692Z,36.18
2023-12-03T00:28:54.181Z,35.96
2023-12-03T00:29:26.615Z,36.17
2023-12-03T00:29:59.097Z,36.40
2023-12-03T00:30:34.091Z,36.02
2023-12-03T00:31:07.445Z,36.13
2023-12-03T00:31:40.083Z,36.14
2023-12-03T00:32:12.447Z,35.97
2023-12-03T00:32:47.445Z,36.09
2023-12-03T00:33:19.846Z,36.48
2023-12-03T00:33:52.301Z,36.16
2023-12-03T00:34:24.736Z,36.09
2023-12-03T00:34:59.754Z,36.57
2023-12-03T00:35:32.105Z,36.44
2023-12-03T00:36:05.130Z,36.38
2023-12-03T00:36:40.386Z,36.33
2023-12-03T00:37:15.381Z,36.35
2023-12-03T00:37:47.732Z,36.15
2023-12-03T00:38:23.248Z,36.06
2023-12-03T00:38:56.204Z,36.34
2023-12-03T00:39:28.608Z,36.49
2023-12-03T00:40:01.351Z,36.21
2023-12-03T00:40:36.313Z,36.08
2023-12-03T00:41:09.266Z,36.15
2023-12-03T00:41:41.620Z,36.28
2023-12-03T00:42:14.128Z,36.37
2023-12-03T00:42:50.210Z,36.23
2023-12-03T00:43:24.082Z,36.45
2023-12-03T00:43:56.602Z,36.45
2023-12-03T00:44:28.955Z,36.00
2023-12-03T00:45:04.267Z,36.27
2023-12-03T00:45:36.687Z,36.11
2023-12-03T00:46:09.210Z,36.11
2023-12-03T00:46:41.578Z,36.34
2023-12-03T00:47:16.847Z,36.25
2023-12-03T00:47:49.315Z,36.18
2023-12-03T00:48:22.031Z,36.10
2023-12-03T00:48:54.558Z,36.16
2023-12-03T00:49:29.959Z,36.34
2023-12-03T00:50:03.265Z,36.49
2023-12-03T00:50:35.684Z,36.52
2023-12-03T00:51:08.507Z,36.50
2023-12-03T00:51:43.501Z,36.60
2023-12-03T00:52:18.534Z,36.17
2023-12-03T00:52:50.908Z,36.47
2023-12-03T00:53:23.262Z,36.23
2023-12-03T00:53:58.513Z,36.52
2023-12-03T00:54:30.958Z,36.32
2023-12-03T00:55:04.177Z,36.19
2023-12-03T00:55:36.528Z,36.31
2023-12-03T00:56:12.945Z,36.54
2023-12-03T00:56:45.441Z,36.18
2023-12-03T00:57:17.834Z,36.44
2023-12-03T00:57:50.341Z,36.21
2023-12-03T00:58:25.347Z,36.30
2023-12-03T00:58:57.702Z,36.54
2023-12-03T00:59:30.086Z,36.59
2023-12-03T01:00:02.551Z,36.54
2023-12-03T01:00:37.625Z,36.59
2023-12-03T01:01:10.316Z,36.21
2023-12-03T01:01:42.721Z,36.31
2023-12-03T01:02:15.221Z,36.54
2023-12-03T01:02:50.262Z,36.16
2023-12-03T01:03:22.657Z,36.55
2023-12-03T01:03:55.068Z,36.67
2023-12-03T01:04:27.558Z,36.43
2023-12-03T01:05:02.773Z,36.68
2023-12-03T01:05:35.292Z,36.46
2023-12-03T01:06:08.710Z,36.72
2023-12-03T01:06:41.531Z,36.25
2023-12-03T01:07:16.590Z,36.35
2023-12-03T01:07:51.577Z,36.45
2023-12-03T01:08:23.946Z,36.75
2023-12-03T01:08:56.342Z,36.41
2023-12-03T01:09:32.361Z,36.80
2023-12-03T01:10:05.659Z,36.25
2023-12-03T01:10:38.239Z,36.80
2023-12-03T01:11:11.337Z,36.42
2023-12-03T01:11:46.689Z,36.74
2023-12-03T01:12:19.090Z,36.47
2023-12-03T01:12:52.332Z,36.54
2023-12-03T01:13:27.375Z,36.85
2023-12-03T01:13:59.793Z,36.66
2023-12-03T01:14:32.220Z,36.47
2023-12-03T01:15:07.630Z,36.59
2023-12-03T01:15:40.102Z,36.64
2023-12-03T01:16:16.359Z,36.53
2023-12-03T01:16:48.794Z,36.84
2023-12-03T01:17:23.870Z,36.81
2023-12-03T01:17:56.310Z,36.89
2023-12-03T01:18:28.693Z,36.69
2023-12-03T01:19:01.281Z,36.47
2023-12-03T01:19:36.700Z,36.89
2023-12-03T01:20:09.978Z,36.54
2023-12-03T01:20:42.552Z,36.83
2023-12-03T01:21:15.458Z,36.71
2023-12-03T01:21:47.877Z,36.59
2023-12-03T01:22:22.881Z,36.41
2023-12-03T01:22:58.546Z,36.78
2023-12-03T01:23:30.963Z,36.99
2023-12-03T01:24:06.059Z,36.69
2023-12-03T01:24:38.477Z,36.49
2023-12-03T01:25:11.768Z,36.79
2023-12-03T01:25:46.724Z,36.86
2023-12-03T01:26:19.112Z,36.60
2023-12-03T01:26:51.467Z,36.85
2023-12-03T01:27:23.857Z,36.79
2023-12-03T01:27:58.903Z,36.89
2023-12-03T01:28:31.258Z,36.53
2023-12-03T01:29:03.633Z,36.65
2023-12-03T01:29:36.022Z,36.91
2023-12-03T01:30:12.151Z,36.93
2023-12-03T01:30:44.653Z,36.72
2023-12-03T01:31:17.571Z,36.57
2023-12-03T01:31:49.971Z,36.88
2023-12-03T01:32:24.958Z,36.93
2023-12-03T01:32:57.526Z,36.54
2023-12-03T01:33:30.127Z,37.03
2023-12-03T01:34:02.702Z,36.71
2023-12-03T01:34:37.911Z,37.03
2023-12-03T01:35:10.376Z,36.86
2023-12-03T01:35:42.767Z,36.74
2023-12-03T01:36:15.170Z,36.66
2023-12-03T01:36:50.476Z,37.12
2023-12-03T01:37:22.868Z,37.03
2023-12-03T01:37:58.639Z,36.93
2023-12-03T01:38:31.689Z,36.93
2023-12-03T01:39:06.901Z,36.85
2023-12-03T01:39:40.464Z,36.81
2023-12-03T01:40:13.103Z,36.90
2023-12-03T01:40:52.846Z,37.05
2023-12-03T01:41:28.030Z,36.80
2023-12-03T01:42:00.479Z,36.79
2023-12-03T01:42:35.027Z,36.76
2023-12-03T01:43:09.990Z,36.63
2023-12-03T01:43:49.374Z,36.79
2023-12-03T01:44:21.763Z,36.69
2023-12-03T01:44:54.153Z,36.99
2023-12-03T01:45:29.199Z,37.06
2023-12-03T01:46:01.658Z,36.75
2023-12-03T01:46:34.097Z,36.83
2023-12-03T01:47:09.074Z,36.91
2023-12-03T01:47:41.615Z,36.69
2023-12-03T01:48:14.496Z,36.96
2023-12-03T01:48:47.326Z,37.03
2023-12-03T01:49:22.915Z,37.13
2023-12-03T01:49:55.967Z,36.87
2023-12-03T01:50:28.400Z,36.87
2023-12-03T01:51:00.879Z,37.03
2023-12-03T01:51:35.940Z,37.05
2023-12-03T01:52:08.411Z,36.68
2023-12-03T01:52:40.995Z,37.05
2023-12-03T01:53:18.111Z,36.69
2023-12-03T01:53:53.202Z,36.96
2023-12-03T01:54:29.021Z,36.80
2023-12-03T01:55:02.102Z,36.91
2023-12-03T01:55:35.076Z,36.74
2023-12-03T01:56:12.320Z,36.93
2023-12-03T01:56:44.748Z,36.76
2023-12-03T01:57:17.465Z,36.76
2023-12-03T01:57:52.447Z,36.98
2023-12-03T01:58:25.060Z,37.16
2023-12-03T01:58:58.097Z,36.80
2023-12-03T01:59:33.539Z,36.84
2023-12-03T02:00:07.890Z,37.10
2023-12-03T02:00:44.846Z,37.05
2023-12-03T02:01:25.556Z,36.63
2023-12-03T02:01:58.072Z,36.79
2023-12-03T02:02:30.561Z,36.88
2023-12-03T02:03:02.927Z,36.91
2023-12-03T02:03:38.301Z,36.63
2023-12-03T02:04:10.696Z,37.09
2023-12-03T02:04:43.153Z,37.18
2023-12-03T02:05:15.865Z,37.13
2023-12-03T02:05:52.386Z,37.08
2023-12-03T02:06:25.860Z,37.03
2023-12-03T02:06:58.497Z,36.98
2023-12-03T02:07:31.025Z,37.06
2023-12-03T02:08:05.997Z,37.13
2023-12-03T02:08:40.946Z,37.17
2023-12-03T02:09:15.804Z,37.00
2023-12-03T02:09:50.885Z,37.03
2023-12-03T02:10:23.285Z,37.23
2023-12-03T02:10:56.020Z,37.01
2023-12-03T02:11:31.901Z,36.90
2023-12-03T02:12:04.966Z,37.26
2023-12-03T02:12:37.351Z,37.13
2023-12-03T02:13:09.734Z,37.25
2023-12-03T02:13:45.143Z,37.22
2023-12-03T02:14:17.544Z,37.02
2023-12-03T02:14:49.902Z,36.87
2023-12-03T02:15:22.336Z,37.32
2023-12-03T02:15:57.413Z,36.97
2023-12-03T02:16:30.568Z,36.97
2023-12-03T02:17:03.856Z,37.17
2023-12-03T02:17:39.037Z,37.00
2023-12-03T02:18:12.475Z,37.03
2023-12-03T02:18:44.891Z,36.97
2023-12-03T02:19:17.352Z,37.27
2023-12-03T02:19:52.387Z,37.04
2023-12-03T02:20:24.842Z,37.21
2023-12-03T02:20:57.333Z,37.00
2023-12-03T02:21:29.752Z,36.89
2023-12-03T02:22:04.783Z,37.10
2023-12-03T02:22:47.508Z,37.09
2023-12-03T02:23:19.913Z,37.08
2023-12-03T02:23:54.857Z,36.97
2023-12-03T02:24:27.253Z,37.06
2023-12-03T02:24:59.635Z,37.09
2023-12-03T02:25:32.080Z,37.09
2023-12-03T02:26:05.153Z,37.07
2023-12-03T02:26:40.129Z,36.95
2023-12-03T02:27:12.504Z,37.23
2023-12-03T02:27:44.942Z,37.10
2023-12-03T02:28:17.312Z,37.22
2023-12-03T02:28:52.399Z,36.81
2023-12-03T02:29:24.772Z,36.83
2023-12-03T02:29:57.110Z,36.82
2023-12-03T02:30:29.475Z,37.10
2023-12-03T02:31:04.918Z,37.10
2023-12-03T02:31:37.481Z,37.05
2023-12-03T02:32:09.820Z,37.15
2023-12-03T02:32:42.204Z,36.93
2023-12-03T02:33:14.735Z,37.16
2023-12-03T02:33:57.697Z,37.22
2023-12-03T02:34:30.226Z,36.85
2023-12-03T02:35:02.647Z,36.81
2023-12-03T02:35:35.020Z,36.90
2023-12-03T02:36:11.312Z,37.19
2023-12-03T02:36:43.720Z,36.88
2023-12-03T02:37:16.394Z,36.71
2023-12-03T02:37:51.359Z,37.17
2023-12-03T02:38:26.306Z,36.80
2023-12-03T02:38:58.650Z,36.81
2023-12-03T02:39:31.032Z,37.13
2023-12-03T02:40:03.887Z,37.22
2023-12-03T02:40:41.839Z,37.18
2023-12-03T02:41:14.237Z,37.17
2023-12-03T02:41:46.588Z,37.08
2023-12-03T02:42:19.002Z,36.70
2023-12-03T02:42:54.030Z,36.82
2023-12-03T02:43:26.468Z,36.99
2023-12-03T02:43:59.248Z,36.96
2023-12-03T02:44:34.187Z,37.18
2023-12-03T02:45:09.293Z,37.07
2023-12-03T02:45:41.763Z,36.79
2023-12-03T02:46:14.294Z,37.00
2023-12-03T02:46:49.236Z,37.18
2023-12-03T02:47:21.620Z,36.98
2023-12-03T02:47:54.170Z,37.22
2023-12-03T02:48:26.674Z,36.86
2023-12-03T02:49:01.809Z,37.19
2023-12-03T02:49:34.880Z,36.90
2023-12-03T02:50:08.388Z,36.74
2023-12-03T02:50:40.742Z,37.02
2023-12-03T02:51:15.785Z,37.13
2023-12-03T02:51:48.352Z,37.25
2023-12-03T02:52:20.869Z,36.74
2023-12-03T02:52:55.872Z,36.80
2023-12-03T02:53:30.873Z,37.09
2023-12-03T02:54:03.254Z,37.19
2023-12-03T02:54:35.710Z,37.00
2023-12-03T02:55:09.044Z,37.09
2023-12-03T02:55:43.997Z,37.06
2023-12-03T02:56:16.616Z,37.21
2023-12-03T02:56:49.007Z,36.98
2023-12-03T02:57:21.427Z,37.15
2023-12-03T02:57:56.506Z,37.13
2023-12-03T02:58:29.389Z,36.69
2023-12-03T02:59:01.769Z,37.10
2023-12-03T02:59:34.139Z,36.96
2023-12-03T03:00:10.435Z,36.86
2023-12-03T03:00:42.853Z,37.16
2023-12-03T03:01:15.295Z,37.10
2023-12-03T03:01:47.744Z,37.17
2023-12-03T03:02:22.727Z,36.78
2023-12-03T03:02:55.706Z,37.08
2023-12-03T03:03:28.111Z,37.05
2023-12-03T03:04:03.209Z,36.73
2023-12-03T03:04:35.685Z,36.94
2023-12-03T03:05:08.980Z,37.08
2023-12-03T03:05:41.368Z,36.83
2023-12-03T03:06:16.432Z,37.02
2023-12-03T03:06:49.212Z,37.00
2023-12-03T03:07:21.715Z,37.01
2023-12-03T03:07:56.689Z,37.08
2023-12-03T03:08:31.643Z,36.84
2023-12-03T03:09:04.588Z,37.02
2023-12-03T03:09:36.995Z,36.88
2023-12-03T03:10:10.050Z,37.11
2023-12-03T03:10:42.423Z,36.99
2023-12-03T03:11:17.450Z,36.96
2023-12-03T03:11:49.846Z,37.10
2023-12-03T03:12:22.538Z,36.91
2023-12-03T03:12:54.955Z,36.95
2023-12-03T03:13:29.975Z,36.63
2023-12-03T03:14:02.344Z,36.64
2023-12-03T03:14:34.740Z,36.74
2023-12-03T03:15:10.949Z,36.98
2023-12-03T03:15:43.385Z,36.73
2023-12-03T03:16:15.922Z,37.09
2023-12-03T03:16:48.274Z,37.06
2023-12-03T03:17:23.264Z,37.00
2023-12-03T03:17:55.678Z,37.01
2023-12-03T03:18:28.172Z,37.01
2023-12-03T03:19:00.734Z,37.10
2023-12-03T03:19:35.844Z,37.03
2023-12-03T03:20:10.075Z,37.03
2023-12-03T03:20:42.628Z,36.81
2023-12-03T03:21:15.090Z,36.65
2023-12-03T03:21:50.140Z,36.94
2023-12-03T03:22:22.510Z,36.62
2023-12-03T03:22:58.458Z,36.82
2023-12-03T03:23:30.849Z,37.10
2023-12-03T03:24:05.853Z,36.88
2023-12-03T03:24:38.543Z,36.88
2023-12-03T03:25:11.025Z,37.03
2023-12-03T03:25:46.155Z,37.00
2023-12-03T03:26:18.532Z,36.96
2023-12-03T03:26:50.899Z,36.93
2023-12-03T03:27:25.962Z,36.88
2023-12-03T03:27:58.338Z,36.77
2023-12-03T03:28:30.698Z,36.71
2023-12-03T03:29:03.105Z,36.64
2023-12-03T03:29:39.664Z,36.69
2023-12-03T03:30:13.123Z,37.06
2023-12-03T03:30:45.545Z,37.04
2023-12-03T03:31:17.996Z,36.71
2023-12-03T03:31:53.004Z,36.61
2023-12-03T03:32:25.631Z,36.83
2023-12-03T03:32:58.010Z,37.03
2023-12-03T03:33:30.772Z,37.12
2023-12-03T03:34:07.042Z,37.02
2023-12-03T03:34:39.529Z,37.03
2023-12-03T03:35:11.912Z,36.88
2023-12-03T03:35:44.263Z,36.73
2023-12-03T03:36:19.557Z,36.59
2023-12-03T03:36:52.106Z,37.02
2023-12-03T03:37:24.537Z,36.63
2023-12-03T03:37:59.494Z,36.89
2023-12-03T03:38:34.441Z,36.69
2023-12-03T03:39:06.838Z,36.55
2023-12-03T03:39:39.222Z,36.96
2023-12-03T03:40:12.584Z,36.75
2023-12-03T03:40:47.544Z,36.64
2023-12-03T03:41:19.907Z,36.79
2023-12-03T03:41:52.287Z,36.59
2023-12-03T03:42:24.796Z,36.83
2023-12-03T03:42:59.768Z,36.98
2023-12-03T03:43:32.108Z,36.58
2023-12-03T03:44:04.810Z,36.66
2023-12-03T03:44:37.178Z,36.74
2023-12-03T03:45:12.636Z,36.69
2023-12-03T03:45:45.085Z,36.86
2023-12-03T03:46:17.482Z,36.69
2023-12-03T03:46:49.910Z,36.81
2023-12-03T03:47:25.607Z,37.10
2023-12-03T03:47:58.636Z,36.79
2023-12-03T03:48:31.650Z,36.68
2023-12-03T03:49:06.731Z,36.98
2023-12-03T03:49:39.279Z,36.73
2023-12-03T03:50:12.157Z,37.00
2023-12-03T03:50:47.154Z,37.02
2023-12-03T03:51:19.720Z,37.07
2023-12-03T03:51:52.273Z,36.85
2023-12-03T03:52:24.654Z,37.08
2023-12-03T03:53:02.241Z,37.07
2023-12-03T03:53:34.606Z,36.67
2023-12-03T03:54:07.065Z,36.67
2023-12-03T03:54:41.362Z,36.86
2023-12-03T03:55:16.563Z,36.73
2023-12-03T03:55:49.193Z,36.96
2023-12-03T03:56:21.596Z,37.08
2023-12-03T03:56:53.989Z,37.15
2023-12-03T03:57:28.975Z,37.11
2023-12-03T03:58:01.346Z,37.15
2023-12-03T03:58:33.725Z,37.10
2023-12-03T03:59:08.727Z,36.81
2023-12-03T03:59:44.028Z,37.00
2023-12-03T04:00:17.302Z,36.83
2023-12-03T04:00:52.364Z,36.67
2023-12-03T04:01:24.826Z,36.81
2023-12-03T04:01:57.238Z,37.06
2023-12-03T04:02:32.222Z,36.98
2023-12-03T04:03:05.236Z,36.99
2023-12-03T04:03:37.858Z,37.17
2023-12-03T04:04:10.360Z,36.96
2023-12-03T04:04:45.373Z,37.15
2023-12-03T04:05:17.792Z,36.99
2023-12-03T04:05:50.161Z,36.97
2023-12-03T04:06:22.582Z,36.80
2023-12-03T04:06:57.677Z,36.86
2023-12-03T04:07:30.205Z,36.73
2023-12-03T04:08:05.758Z,36.88
2023-12-03T04:08:38.324Z,36.81
2023-12-03T04:09:13.310Z,37.14
2023-12-03T04:09:46.390Z,36.87
2023-12-03T04:10:18.778Z,37.19
2023-12-03T04:10:51.129Z,37.06
2023-12-03T04:11:26.086Z,36.76
2023-12-03T04:11:58.491Z,36.66
2023-12-03T04:12:30.880Z,36.76
2023-12-03T04:13:03.265Z,36.98
2023-12-03T04:13:38.246Z,37.10
2023-12-03T04:14:15.019Z,37.11
2023-12-03T04:14:47.388Z,36.66
2023-12-03T04:15:22.646Z,36.95
2023-12-03T04:15:55.366Z,37.11
2023-12-03T04:16:27.736Z,36.72
2023-12-03T04:17:00.190Z,36.79
2023-12-03T04:17:35.174Z,36.69
2023-12-03T04:18:07.639Z,36.62
2023-12-03T04:18:40.146Z,36.76
2023-12-03T04:19:13.021Z,36.76
2023-12-03T04:19:48.084Z,37.07
2023-12-03T04:20:20.420Z,36.75
2023-12-03T04:20:52.780Z,36.98
2023-12-03T04:21:25.157Z,36.79
2023-12-03T04:22:00.203Z,36.86
2023-12-03T04:22:32.576Z,37.00
2023-12-03T04:23:07.599Z,37.07
2023-12-03T04:23:39.992Z,36.98
2023-12-03T04:24:14.976Z,36.93
2023-12-03T04:24:47.522Z,36.72
2023-12-03T04:25:19.913Z,36.89
2023-12-03T04:25:52.249Z,36.79
2023-12-03T04:26:27.214Z,36.72
2023-12-03T04:26:59.600Z,36.98
2023-12-03T04:27:32.118Z,36.81
2023-12-03T04:28:05.574Z,36.79
2023-12-03T04:28:43.813Z,36.89
2023-12-03T04:29:16.209Z,37.05
2023-12-03T04:29:48.552Z,36.93
2023-12-03T04:30:20.942Z,36.99
2023-12-03T04:30:57.985Z,36.96
2023-12-03T04:31:30.651Z,37.08
2023-12-03T04:32:03.027Z,37.00
2023-12-03T04:32:35.504Z,37.07
2023-12-03T04:33:10.599Z,36.79
2023-12-03T04:33:43.054Z,36.73
2023-12-03T04:34:15.457Z,36.96
2023-12-03T04:34:47.915Z,36.88
2023-12-03T04:35:22.892Z,36.91
2023-12-03T04:35:55.258Z,36.86
2023-12-03T04:36:30.565Z,36.91
2023-12-03T04:37:03.782Z,37.05
2023-12-03T04:37:36.173Z,36.79
2023-12-03T04:38:11.240Z,36.79
2023-12-03T04:38:46.472Z,37.13
2023-12-03T04:39:18.848Z,36.92
2023-12-03T04:39:51.283Z,36.94
2023-12-03T04:40:23.704Z,36.69
2023-12-03T04:40:58.646Z,36.79
2023-12-03T04:41:34.989Z,36.87
2023-12-03T04:42:08.123Z,36.88
2023-12-03T04:42:40.594Z,36.71
2023-12-03T04:43:15.709Z,37.06
2023-12-03T04:43:48.316Z,36.65
2023-12-03T04:44:20.668Z,36.91
2023-12-03T04:44:53.048Z,36.74
2023-12-03T04:45:28.091Z,36.66
2023-12-03T04:46:04.478Z,36.72
2023-12-03T04:46:40.474Z,37.01
2023-12-03T04:47:16.969Z,36.91
2023-12-03T04:47:49.624Z,37.09
2023-12-03T04:48:22.094Z,36.88
2023-12-03T04:48:54.626Z,36.64
2023-12-03T04:49:29.751Z,36.93
2023-12-03T04:50:02.210Z,36.77
2023-12-03T04:50:34.666Z,36.64
2023-12-03T04:51:10.459Z,36.83
2023-12-03T04:51:42.856Z,36.99
2023-12-03T04:52:15.244Z,36.62
2023-12-03T04:52:47.605Z,36.96
2023-12-03T04:53:25.253Z,36.98
2023-12-03T04:53:57.705Z,36.65
2023-12-03T04:54:30.067Z,37.06
2023-12-03T04:55:05.445Z,36.85
2023-12-03T04:55:37.821Z,36.99
2023-12-03T04:56:10.968Z,36.71
2023-12-03T04:56:45.919Z,36.93
2023-12-03T04:57:18.347Z,36.64
2023-12-03T04:57:50.789Z,36.55
2023-12-03T04:58:23.212Z,36.66
2023-12-03T04:58:58.162Z,37.07
2023-12-03T04:59:30.520Z,36.66
2023-12-03T05:00:02.918Z,36.66
2023-12-03T05:00:35.345Z,37.09
2023-12-03T05:01:10.485Z,36.83
2023-12-03T05:01:42.931Z,36.76
2023-12-03T05:02:15.285Z,36.85
2023-12-03T05:02:47.709Z,36.69
2023-12-03T05:03:22.945Z,37.00
2023-12-03T05:03:55.420Z,36.76
2023-12-03T05:04:28.392Z,36.72
2023-12-03T05:05:00.809Z,36.79
2023-12-03T05:05:35.799Z,36.90
2023-12-03T05:06:09.348Z,36.91
2023-12-03T05:06:41.800Z,36.67
2023-12-03T05:07:17.818Z,37.05
2023-12-03T05:07:50.198Z,36.80
2023-12-03T05:08:25.164Z,36.88
2023-12-03T05:08:57.681Z,37.10
2023-12-03T05:09:32.672Z,36.73
2023-12-03T05:10:06.698Z,36.88
2023-12-03T05:10:39.084Z,36.69
2023-12-03T05:11:11.441Z,37.17
2023-12-03T05:11:46.540Z,36.74
2023-12-03T05:12:18.908Z,37.22
2023-12-03T05:12:51.348Z,37.10
2023-12-03T05:13:23.880Z,36.70
2023-12-03T05:13:58.924Z,37.08
2023-12-03T05:14:31.283Z,36.78
2023-12-03T05:15:03.940Z,37.08
2023-12-03T05:15:36.463Z,36.74
2023-12-03T05:16:12.624Z,36.85
2023-12-03T05:16:45.048Z,37.11
2023-12-03T05:17:17.425Z,36.76
2023-12-03T05:17:49.880Z,37.12
2023-12-03T05:18:24.984Z,36.89
2023-12-03T05:18:57.607Z,37.17
2023-12-03T05:19:30.126Z,37.21
2023-12-03T05:20:02.571Z,36.99
2023-12-03T05:20:37.540Z,37.22
2023-12-03T05:21:10.158Z,37.17
2023-12-03T05:21:42.603Z,37.05
2023-12-03T05:22:14.969Z,37.07
2023-12-03T05:22:52.745Z,36.85
2023-12-03T05:23:27.745Z,36.81
2023-12-03T05:24:00.227Z,36.69
2023-12-03T05:24:32.653Z,37.04
2023-12-03T05:25:09.550Z,36.64
2023-12-03T05:25:42.325Z,37.04
2023-12-03T05:26:15.186Z,36.74
2023-12-03T05:26:47.531Z,37.08
2023-12-03T05:27:22.991Z,36.83
2023-12-03T05:27:55.382Z,36.80
2023-12-03T05:28:27.773Z,37.04
2023-12-03T05:29:02.805Z,36.81
2023-12-03T05:29:35.161Z,36.96
2023-12-03T05:30:09.234Z,37.13
2023-12-03T05:30:41.660Z,36.76
2023-12-03T05:31:17.043Z,37.05
2023-12-03T05:31:49.391Z,36.88
2023-12-03T05:32:21.901Z,37.14
2023-12-03T05:32:54.318Z,36.93
2023-12-03T05:33:29.419Z,36.88
2023-12-03T05:34:01.905Z,36.94
2023-12-03T05:34:34.430Z,36.84
2023-12-03T05:35:07.421Z,36.96
2023-12-03T05:35:42.681Z,37.17
2023-12-03T05:36:21.366Z,36.84
2023-12-03T05:36:54.871Z,37.13
2023-12-03T05:37:30.862Z,37.03
2023-12-03T05:38:03.281Z,37.14
2023-12-03T05:38:39.041Z,37.17
2023-12-03T05:39:11.524Z,37.15
2023-12-03T05:39:46.528Z,37.13
2023-12-03T05:40:18.924Z,36.96
2023-12-03T05:40:51.297Z,36.80
2023-12-03T05:41:23.643Z,36.98
2023-12-03T05:41:59.172Z,37.11
2023-12-03T05:42:31.556Z,36.88
2023-12-03T05:43:04.033Z,37.13
2023-12-03T05:43:36.505Z,36.92
2023-12-03T05:44:11.574Z,37.15
2023-12-03T05:44:43.946Z,36.96
2023-12-03T05:45:16.361Z,37.19
2023-12-03T05:45:48.829Z,37.26
2023-12-03T05:46:23.848Z,37.22
2023-12-03T05:46:56.196Z,37.25
2023-12-03T05:47:28.647Z,37.07
2023-12-03T05:48:01.237Z,37.15
2023-12-03T05:48:33.796Z,36.74
2023-12-03T05:49:10.139Z,37.25
2023-12-03T05:49:42.738Z,37.19
2023-12-03T05:50:15.223Z,37.04
2023-12-03T05:50:47.716Z,37.10
2023-12-03T05:51:22.759Z,36.79
2023-12-03T05:51:56.100Z,36.92
2023-12-03T05:52:28.614Z,37.00
2023-12-03T05:53:03.592Z,37.08
2023-12-03T05:53:38.611Z,36.82
2023-12-03T05:54:10.977Z,36.86
2023-12-03T05:54:43.755Z,37.11
2023-12-03T05:55:18.923Z,37.17
2023-12-03T05:55:51.308Z,37.24
2023-12-03T05:56:23.664Z,37.14
2023-12-03T05:56:56.138Z,36.83
2023-12-03T05:57:31.138Z,37.01
2023-12-03T05:58:03.541Z,37.27
2023-12-03T05:58:35.986Z,36.89
2023-12-03T05:59:08.334Z,37.21
2023-12-03T05:59:40.716Z,36.88
2023-12-03T06:00:17.201Z,37.32
2023-12-03T06:00:49.796Z,37.04
2023-12-03T06:01:23.535Z,37.17
2023-12-03T06:01:58.688Z,36.81
2023-12-03T06:02:31.121Z,36.95
2023-12-03T06:03:06.233Z,37.22
2023-12-03T06:03:38.669Z,37.13
2023-12-03T06:04:12.086Z,36.86
2023-12-03T06:04:47.199Z,36.94
2023-12-03T06:05:19.665Z,36.89
2023-12-03T06:05:52.135Z,37.04
2023-12-03T06:06:24.707Z,37.34
2023-12-03T06:06:59.878Z,37.19
2023-12-03T06:07:32.352Z,37.19
2023-12-03T06:08:04.977Z,36.88
2023-12-03T06:08:42.605Z,37.28
2023-12-03T06:09:14.957Z,37.32
2023-12-03T06:09:47.394Z,36.92
2023-12-03T06:10:19.776Z,37.02
2023-12-03T06:10:54.731Z,36.82
2023-12-03T06:11:27.782Z,36.82
2023-12-03T06:12:00.207Z,37.17
2023-12-03T06:12:32.583Z,36.96
2023-12-03T06:13:07.566Z,37.21
2023-12-03T06:13:39.966Z,36.71
2023-12-03T06:14:12.301Z,37.05
2023-12-03T06:14:44.670Z,37.21
2023-12-03T06:15:19.955Z,36.78
2023-12-03T06:15:52.361Z,36.86
2023-12-03T06:16:24.867Z,36.88
2023-12-03T06:16:57.285Z,36.79
2023-12-03T06:17:32.277Z,36.79
2023-12-03T06:18:04.917Z,36.94
2023-12-03T06:18:37.540Z,37.04
2023-12-03T06:19:10.148Z,36.76
2023-12-03T06:19:45.484Z,37.05
2023-12-03T06:20:17.869Z,36.74
2023-12-03T06:20:50.228Z,37.20
2023-12-03T06:21:23.536Z,36.81
2023-12-03T06:21:59.324Z,36.92
2023-12-03T06:22:31.680Z,37.16
2023-12-03T06:23:04.686Z,37.04
2023-12-03T06:23:42.563Z,36.91
2023-12-03T06:24:14.963Z,36.73
2023-12-03T06:24:47.358Z,37.03
2023-12-03T06:25:19.883Z,36.80
2023-12-03T06:25:52.218Z,37.03
2023-12-03T06:26:27.236Z,37.12
2023-12-03T06:26:59.590Z,36.60
2023-12-03T06:27:32.033Z,37.00
2023-12-03T06:28:07.418Z,36.97
2023-12-03T06:28:39.804Z,36.97
2023-12-03T06:29:12.192Z,36.74
2023-12-03T06:29:44.573Z,36.61
2023-12-03T06:30:20.092Z,36.64
2023-12-03T06:30:52.506Z,36.58
2023-12-03T06:31:25.150Z,36.97
2023-12-03T06:31:57.492Z,36.67
2023-12-03T06:32:29.881Z,36.67
2023-12-03T06:33:05.018Z,36.89
2023-12-03T06:33:37.666Z,36.54
2023-12-03T06:34:10.259Z,36.92
2023-12-03T06:34:45.347Z,36.57
2023-12-03T06:35:18.265Z,36.64
2023-12-03T06:35:50.668Z,36.94
2023-12-03T06:36:23.527Z,36.57
2023-12-03T06:36:59.844Z,36.74
2023-12-03T06:37:32.194Z,36.80
2023-12-03T06:38:04.558Z,36.74
2023-12-03T06:38:39.509Z,37.00
2023-12-03T06:39:14.535Z,37.02
2023-12-03T06:39:46.952Z,37.01
2023-12-03T06:40:19.378Z,36.88
2023-12-03T06:40:51.782Z,36.88
2023-12-03T06:41:24.180Z,36.98
2023-12-03T06:41:59.145Z,36.86
2023-12-03T06:42:31.505Z,36.66
2023-12-03T06:43:04.055Z,36.69
2023-12-03T06:43:36.474Z,36.77
2023-12-03T06:44:11.542Z,36.69
2023-12-03T06:44:45.130Z,36.77
2023-12-03T06:45:17.732Z,36.75
2023-12-03T06:45:50.152Z,36.69
2023-12-03T06:46:25.428Z,37.15
2023-12-03T06:46:57.802Z,37.08
2023-12-03T06:47:31.198Z,36.62
2023-12-03T06:48:04.075Z,36.91
2023-12-03T06:48:39.176Z,36.99
2023-12-03T06:49:12.100Z,36.75
2023-12-03T06:49:44.769Z,36.96
2023-12-03T06:50:17.216Z,36.90
2023-12-03T06:50:52.156Z,36.70
2023-12-03T06:51:24.543Z,36.76
2023-12-03T06:51:56.945Z,36.73
2023-12-03T06:52:29.685Z,36.76
2023-12-03T06:53:04.779Z,36.69
2023-12-03T06:53:39.758Z,36.69
2023-12-03T06:54:12.175Z,37.08
2023-12-03T06:54:47.194Z,36.72
2023-12-03T06:55:19.577Z,37.03
2023-12-03T06:55:51.918Z,36.67
2023-12-03T06:56:24.852Z,37.01
2023-12-03T06:56:59.791Z,36.94
2023-12-03T06:57:32.158Z,36.88
2023-12-03T06:58:04.992Z,36.93
2023-12-03T06:58:37.369Z,36.79
2023-12-03T06:59:12.344Z,36.76
2023-12-03T06:59:44.888Z,36.75
2023-12-03T07:00:18.308Z,37.05
2023-12-03T07:00:50.723Z,36.76
2023-12-03T07:01:25.740Z,36.81
2023-12-03T07:01:58.765Z,37.14
2023-12-03T07:02:31.117Z,36.87
2023-12-03T07:03:03.493Z,36.77
2023-12-03T07:03:38.489Z,37.15
2023-12-03T07:04:10.923Z,37.03
2023-12-03T07:04:43.361Z,36.98
2023-12-03T07:05:16.091Z,37.07
2023-12-03T07:05:51.076Z,36.90
2023-12-03T07:06:23.553Z,36.69
2023-12-03T07:06:55.992Z,36.71
2023-12-03T07:07:28.517Z,37.06
2023-12-03T07:08:03.648Z,37.10
2023-12-03T07:08:36.057Z,37.05
2023-12-03T07:09:36.604Z,36.91
2023-12-03T07:10:09.518Z,36.70
2023-12-03T07:10:41.886Z,37.10
2023-12-03T07:11:14.836Z,36.84
2023-12-03T07:11:47.299Z,37.07